Time;durP1;ratioP1;P1;durP2;ratioP2;P2;SDS_P1;SDS_P2;PMS_P1;PMS_P2;Temp;Humidity;BMP_temperature;BMP_pressure;BME280_temperature;BME280_humidity;BME280_pressure;Samples;Min_cycle;Max_cycle;Signal;HPM_P1;HPM_P2
2020/12/16 00:00:10;;;;;;;11.63;9.43;;;5.90;99.90;;;;;;5030630;28;20857;-89
2020/12/16 00:02:36;;;;;;;11.63;8.57;;;5.90;99.90;;;;;;5015165;28;20460;-89
2020/12/16 00:05:04;;;;;;;13.03;9.77;;;5.80;99.90;;;;;;5017582;28;20905;-89
2020/12/16 00:07:31;;;;;;;12.20;9.90;;;5.80;99.90;;;;;;5035041;28;20456;-89
2020/12/16 00:10:01;;;;;;;10.33;8.57;;;5.80;99.90;;;;;;5035326;28;20525;-88
2020/12/16 00:12:29;;;;;;;10.73;8.90;;;5.70;99.90;;;;;;5034742;28;20538;-88
2020/12/16 00:14:55;;;;;;;10.83;9.10;;;5.70;99.90;;;;;;5034496;28;20444;-88
2020/12/16 00:17:22;;;;;;;10.50;8.53;;;5.60;99.90;;;;;;5034107;28;20482;-89
2020/12/16 00:19:48;;;;;;;11.80;7.40;;;5.60;99.90;;;;;;5033778;28;20480;-87
2020/12/16 00:22:15;;;;;;;9.50;7.53;;;5.60;99.90;;;;;;5033696;28;20494;-87
2020/12/16 00:24:42;;;;;;;10.80;8.47;;;5.60;99.90;;;;;;5033357;28;20461;-87
2020/12/16 00:27:10;;;;;;;8.70;7.27;;;5.60;99.90;;;;;;5021540;28;20441;-87
2020/12/16 00:29:37;;;;;;;8.43;7.63;;;5.50;99.90;;;;;;5034420;28;20792;-87
2020/12/16 00:32:04;;;;;;;12.47;8.30;;;5.50;99.90;;;;;;5017158;28;20540;-88
2020/12/16 00:34:30;;;;;;;10.63;8.60;;;5.50;99.90;;;;;;5014458;28;20453;-87
2020/12/16 00:36:57;;;;;;;9.93;7.83;;;5.50;99.90;;;;;;5014230;28;20449;-87
2020/12/16 00:39:23;;;;;;;8.80;7.90;;;5.40;99.90;;;;;;5030232;28;20519;-90
2020/12/16 00:41:51;;;;;;;8.87;7.07;;;5.40;99.90;;;;;;5030382;28;20533;-88
2020/12/16 00:44:17;;;;;;;9.60;7.77;;;5.40;99.90;;;;;;5014058;28;20447;-88
2020/12/16 00:46:44;;;;;;;11.20;8.00;;;5.40;99.90;;;;;;5029660;28;20555;-88
2020/12/16 00:49:10;;;;;;;9.43;8.07;;;5.40;99.90;;;;;;5034933;28;20487;-87
2020/12/16 00:51:36;;;;;;;10.20;7.70;;;5.50;99.90;;;;;;5034432;28;20484;-87
2020/12/16 00:54:03;;;;;;;10.70;9.00;;;5.60;99.90;;;;;;5033866;28;20541;-88
2020/12/16 00:56:29;;;;;;;9.37;7.90;;;5.70;99.90;;;;;;5034968;28;20538;-87
2020/12/16 00:58:56;;;;;;;9.77;7.60;;;5.80;99.90;;;;;;5034417;28;20463;-87
2020/12/16 01:01:23;;;;;;;9.40;7.83;;;5.90;99.90;;;;;;5032588;28;21014;-87
2020/12/16 01:03:49;;;;;;;11.17;8.63;;;6.00;99.90;;;;;;5034694;28;20458;-88
2020/12/16 01:06:15;;;;;;;9.73;7.60;;;6.10;99.90;;;;;;5033551;28;20455;-87
2020/12/16 01:08:42;;;;;;;10.97;7.93;;;6.20;99.90;;;;;;5035300;28;20531;-87
2020/12/16 01:11:08;;;;;;;11.93;8.90;;;6.30;99.90;;;;;;5035128;28;20459;-87
2020/12/16 01:13:35;;;;;;;9.87;8.27;;;6.40;99.90;;;;;;5033478;28;20452;-86
2020/12/16 01:16:05;;;;;;;11.83;8.97;;;6.50;99.90;;;;;;5032468;28;20535;-95
2020/12/16 01:18:31;;;;;;;12.00;9.13;;;6.60;99.90;;;;;;5033024;28;20462;-88
2020/12/16 01:20:58;;;;;;;11.70;9.60;;;6.70;99.90;;;;;;5033267;28;20598;-88
2020/12/16 01:23:24;;;;;;;10.77;9.13;;;6.70;99.90;;;;;;5032947;28;20950;-88
2020/12/16 01:25:50;;;;;;;11.70;9.80;;;6.80;99.90;;;;;;5034032;28;20507;-88
2020/12/16 01:28:17;;;;;;;10.60;8.83;;;6.90;99.90;;;;;;5029036;28;20537;-88
2020/12/16 01:30:43;;;;;;;13.30;11.00;;;6.90;99.90;;;;;;5013751;28;20450;-88
2020/12/16 01:33:10;;;;;;;12.53;11.23;;;7.00;99.90;;;;;;5022578;28;20544;-88
2020/12/16 01:35:37;;;;;;;10.23;9.23;;;7.10;99.90;;;;;;5034811;28;20456;-88
2020/12/16 01:38:03;;;;;;;12.67;10.43;;;7.10;99.90;;;;;;5031994;28;20564;-88
2020/12/16 01:40:29;;;;;;;12.87;10.20;;;7.20;99.90;;;;;;5017039;28;20546;-88
2020/12/16 01:42:56;;;;;;;15.47;12.27;;;7.20;99.90;;;;;;5033756;28;20536;-88
2020/12/16 01:45:23;;;;;;;12.57;10.80;;;7.20;99.90;;;;;;5035820;28;20465;-88
2020/12/16 01:47:50;;;;;;;13.93;12.07;;;7.30;99.90;;;;;;5037026;28;20536;-88
2020/12/16 01:50:18;;;;;;;12.97;10.63;;;7.30;99.90;;;;;;5035783;28;20496;-88
2020/12/16 01:52:46;;;;;;;12.73;10.90;;;7.30;99.90;;;;;;5036314;28;20774;-88
2020/12/16 01:55:13;;;;;;;13.13;11.70;;;7.40;99.90;;;;;;5036798;28;20464;-87
2020/12/16 01:57:45;;;;;;;12.60;11.30;;;7.40;99.90;;;;;;5037343;28;20502;-87
2020/12/16 02:00:12;;;;;;;17.47;13.57;;;7.50;99.90;;;;;;5033503;28;20480;-88
2020/12/16 02:02:44;;;;;;;15.33;13.30;;;7.50;99.90;;;;;;5016840;28;20454;-88
2020/12/16 02:05:13;;;;;;;17.10;13.40;;;7.50;99.90;;;;;;5015745;28;20446;-88
2020/12/16 02:07:42;;;;;;;14.33;12.07;;;7.50;99.90;;;;;;5018331;28;20493;-88
2020/12/16 02:10:08;;;;;;;13.40;11.73;;;7.40;99.90;;;;;;5035197;28;20485;-89
2020/12/16 02:12:35;;;;;;;15.37;12.40;;;7.40;99.90;;;;;;5035885;28;20456;-88
2020/12/16 02:15:03;;;;;;;15.70;11.90;;;7.30;99.90;;;;;;5036196;28;20492;-88
2020/12/16 02:17:30;;;;;;;17.30;12.97;;;7.20;99.90;;;;;;5035952;28;21031;-88
2020/12/16 02:19:57;;;;;;;15.80;12.93;;;7.10;99.90;;;;;;5035839;28;20918;-88
2020/12/16 02:22:25;;;;;;;17.87;14.03;;;7.00;99.90;;;;;;5035121;28;20544;-88
2020/12/16 02:25:00;;;;;;;14.93;12.60;;;6.80;99.90;;;;;;5036008;28;20455;-88
2020/12/16 02:27:27;;;;;;;15.07;12.30;;;6.80;99.90;;;;;;5016706;28;20806;-89
2020/12/16 02:29:53;;;;;;;14.30;11.40;;;6.70;99.90;;;;;;5016209;28;20468;-88
2020/12/16 02:32:23;;;;;;;13.57;11.30;;;6.60;99.90;;;;;;5015408;28;20506;-88
2020/12/16 02:34:49;;;;;;;15.70;11.10;;;6.50;99.90;;;;;;5016055;28;20460;-86
2020/12/16 02:37:16;;;;;;;13.10;11.37;;;6.50;99.90;;;;;;5033033;28;20542;-86
2020/12/16 02:39:42;;;;;;;11.63;10.37;;;6.40;99.90;;;;;;5034973;28;20964;-86
2020/12/16 02:42:09;;;;;;;13.77;11.30;;;6.30;99.90;;;;;;5035041;28;20456;-86
2020/12/16 02:44:36;;;;;;;12.23;10.17;;;6.30;99.90;;;;;;5018362;28;20475;-86
2020/12/16 02:47:04;;;;;;;13.10;9.90;;;6.20;99.90;;;;;;5016138;28;20457;-86
2020/12/16 02:49:31;;;;;;;12.60;10.53;;;6.20;99.90;;;;;;5028469;28;20465;-86
2020/12/16 02:51:59;;;;;;;11.87;9.90;;;6.00;99.90;;;;;;5035055;28;21045;-86
2020/12/16 02:54:26;;;;;;;12.63;10.80;;;6.00;99.90;;;;;;5034796;28;20572;-85
2020/12/16 02:56:54;;;;;;;12.50;10.27;;;5.90;99.90;;;;;;5035493;28;20453;-87
2020/12/16 02:59:23;;;;;;;10.70;9.47;;;5.90;99.90;;;;;;5035002;28;20780;-87
2020/12/16 03:01:50;;;;;;;12.33;9.90;;;5.80;99.90;;;;;;5034794;28;20460;-87
2020/12/16 03:04:17;;;;;;;12.73;10.37;;;5.80;99.90;;;;;;5034746;28;20543;-87
2020/12/16 03:06:47;;;;;;;13.90;10.20;;;5.80;99.90;;;;;;5035473;28;20470;-87
2020/12/16 03:09:14;;;;;;;13.33;10.40;;;5.70;99.90;;;;;;5034179;28;20445;-87
2020/12/16 03:11:40;;;;;;;12.20;9.77;;;5.70;99.90;;;;;;5027376;28;20454;-87
2020/12/16 03:14:10;;;;;;;14.00;11.30;;;5.60;99.90;;;;;;5016598;28;20454;-95
2020/12/16 03:16:38;;;;;;;12.23;10.30;;;5.60;99.90;;;;;;5018342;28;20470;-87
2020/12/16 03:19:04;;;;;;;12.17;10.67;;;5.60;99.90;;;;;;5015313;28;20457;-86
2020/12/16 03:21:30;;;;;;;12.23;10.03;;;5.50;99.90;;;;;;5014887;28;20494;-87
2020/12/16 03:23:57;;;;;;;12.93;10.43;;;5.50;99.90;;;;;;5015319;28;20485;-87
2020/12/16 03:26:23;;;;;;;12.00;9.93;;;5.40;99.90;;;;;;5015355;28;20527;-87
2020/12/16 03:28:50;;;;;;;12.33;10.03;;;5.40;99.90;;;;;;5022577;28;20995;-87
2020/12/16 03:31:17;;;;;;;12.93;10.60;;;5.40;99.90;;;;;;5034012;28;20931;-87
2020/12/16 03:33:46;;;;;;;14.53;10.93;;;5.30;99.90;;;;;;5035325;28;20455;-87
2020/12/16 03:36:14;;;;;;;13.00;10.53;;;5.30;99.90;;;;;;5034296;28;20783;-87
2020/12/16 03:38:40;;;;;;;13.47;10.27;;;5.30;99.90;;;;;;5034813;28;20759;-85
2020/12/16 03:41:09;;;;;;;13.83;8.63;;;5.20;99.90;;;;;;5033432;28;20487;-85
2020/12/16 03:43:36;;;;;;;11.27;10.00;;;5.20;99.90;;;;;;5034416;28;20506;-85
2020/12/16 03:46:09;;;;;;;11.70;9.67;;;5.20;99.90;;;;;;5015450;28;20446;-87
2020/12/16 03:48:36;;;;;;;11.73;9.67;;;5.20;99.90;;;;;;5015838;28;20432;-88
2020/12/16 03:51:04;;;;;;;13.37;10.23;;;5.20;99.90;;;;;;5021136;28;20487;-87
2020/12/16 03:53:32;;;;;;;14.30;10.80;;;5.10;99.90;;;;;;5034988;28;20451;-85
2020/12/16 03:55:58;;;;;;;14.63;10.73;;;5.20;99.90;;;;;;5035433;28;20784;-86
2020/12/16 03:58:24;;;;;;;17.77;11.10;;;5.10;99.90;;;;;;5036182;28;20547;-87
2020/12/16 04:00:51;;;;;;;13.50;10.20;;;5.10;99.90;;;;;;5030928;28;20480;-86
2020/12/16 04:03:17;;;;;;;16.23;11.37;;;5.10;99.90;;;;;;5025956;28;20561;-87
2020/12/16 04:05:43;;;;;;;13.90;10.30;;;5.10;99.90;;;;;;5034978;28;20505;-87
2020/12/16 04:08:11;;;;;;;15.03;10.87;;;5.10;99.90;;;;;;5034666;28;20831;-91
2020/12/16 04:10:37;;;;;;;14.80;11.07;;;5.10;99.90;;;;;;5034707;28;20558;-87
2020/12/16 04:13:03;;;;;;;18.30;12.40;;;5.10;99.90;;;;;;5035734;28;20466;-87
2020/12/16 04:15:30;;;;;;;17.17;11.07;;;5.10;99.90;;;;;;5035318;28;20540;-87
2020/12/16 04:17:56;;;;;;;17.73;11.10;;;5.10;99.90;;;;;;5035597;28;20550;-87
2020/12/16 04:20:22;;;;;;;16.23;11.20;;;5.10;99.90;;;;;;5034737;28;20486;-87
2020/12/16 04:22:49;;;;;;;17.83;12.70;;;5.00;99.90;;;;;;5034497;28;20514;-87
2020/12/16 04:25:16;;;;;;;16.90;10.40;;;5.00;99.90;;;;;;5034942;28;20460;-87
2020/12/16 04:27:42;;;;;;;13.37;11.53;;;5.00;99.90;;;;;;5038253;28;20530;-87
2020/12/16 04:30:09;;;;;;;14.80;10.93;;;5.00;99.90;;;;;;5023654;28;20543;-86
2020/12/16 04:32:35;;;;;;;15.40;11.20;;;5.00;99.90;;;;;;5033694;28;20468;-88
2020/12/16 04:35:02;;;;;;;14.70;11.07;;;5.00;99.90;;;;;;5035000;28;20574;-86
2020/12/16 04:37:28;;;;;;;14.03;11.13;;;5.00;99.90;;;;;;5034270;28;20453;-87
2020/12/16 04:39:54;;;;;;;12.83;10.20;;;5.00;99.90;;;;;;5035277;28;20517;-87
2020/12/16 04:42:22;;;;;;;14.50;10.80;;;5.00;99.90;;;;;;5035038;28;20476;-87
2020/12/16 04:44:48;;;;;;;14.97;10.70;;;5.00;99.90;;;;;;5034978;28;20506;-88
2020/12/16 04:47:15;;;;;;;14.90;12.00;;;5.00;99.90;;;;;;5022435;28;20551;-87
2020/12/16 04:49:42;;;;;;;14.17;10.50;;;4.90;99.90;;;;;;5025779;28;20564;-85
2020/12/16 04:52:10;;;;;;;15.53;11.20;;;4.90;99.90;;;;;;5032607;28;20487;-84
2020/12/16 04:54:37;;;;;;;13.80;10.40;;;4.90;99.90;;;;;;5032841;28;20547;-85
2020/12/16 04:57:06;;;;;;;14.37;10.93;;;4.90;99.90;;;;;;5033808;28;20458;-85
2020/12/16 04:59:33;;;;;;;13.40;10.83;;;4.90;99.90;;;;;;5033720;28;20490;-86
2020/12/16 05:02:03;;;;;;;15.20;10.00;;;4.80;99.90;;;;;;5034377;28;20454;-86
2020/12/16 05:04:30;;;;;;;16.47;11.20;;;4.80;99.90;;;;;;5021214;28;20505;-86
2020/12/16 05:06:56;;;;;;;14.37;10.00;;;4.80;99.90;;;;;;5023783;28;20545;-87
2020/12/16 05:09:23;;;;;;;16.33;11.13;;;4.70;99.90;;;;;;5032711;28;20535;-86
2020/12/16 05:11:51;;;;;;;15.33;10.70;;;4.70;99.90;;;;;;5037687;28;20460;-86
2020/12/16 05:14:19;;;;;;;12.93;10.20;;;4.70;99.90;;;;;;5036809;28;20455;-86
2020/12/16 05:16:57;;;;;;;14.60;11.90;;;4.70;99.90;;;;;;5034949;28;20568;-88
2020/12/16 05:19:31;;;;;;;16.13;11.37;;;4.70;99.90;;;;;;5018747;28;20947;-86
2020/12/16 05:22:23;;;;;;;14.03;9.83;;;4.70;99.90;;;;;;5029923;28;21015;-86
2020/12/16 05:24:52;;;;;;;13.40;10.17;;;4.70;99.90;;;;;;5037301;28;20473;-87
2020/12/16 05:27:24;;;;;;;13.60;10.10;;;4.70;99.90;;;;;;5037130;28;20927;-86
2020/12/16 05:29:52;;;;;;;15.30;11.67;;;4.70;99.90;;;;;;5037129;28;20455;-87
2020/12/16 05:32:22;;;;;;;14.57;10.77;;;4.60;99.90;;;;;;5032410;28;20815;-87
2020/12/16 05:34:49;;;;;;;17.20;11.43;;;4.60;99.90;;;;;;5026572;28;20539;-87
2020/12/16 05:37:33;;;;;;;15.77;11.07;;;4.60;99.90;;;;;;5037282;28;20452;-88
2020/12/16 05:40:03;;;;;;;13.97;10.43;;;4.60;99.90;;;;;;5018971;28;20472;-87
2020/12/16 05:42:29;;;;;;;11.47;9.47;;;4.60;99.90;;;;;;5017216;28;20994;-87
2020/12/16 05:44:58;;;;;;;12.20;9.30;;;4.60;99.90;;;;;;5020496;28;20458;-87
2020/12/16 05:47:25;;;;;;;16.30;11.57;;;4.60;99.90;;;;;;5017799;28;20563;-87
2020/12/16 05:49:52;;;;;;;15.00;11.67;;;4.60;99.90;;;;;;5036275;28;20489;-85
2020/12/16 05:52:18;;;;;;;15.63;11.23;;;4.50;99.90;;;;;;5050422;28;20490;-86
2020/12/16 05:54:49;;;;;;;14.63;11.13;;;4.60;99.90;;;;;;5036826;28;20463;-86
2020/12/16 05:57:18;;;;;;;14.37;10.20;;;4.60;99.90;;;;;;5036776;28;20433;-89
2020/12/16 06:00:08;;;;;;;16.97;13.67;;;4.50;99.90;;;;;;5036462;28;20884;-87
2020/12/16 06:02:37;;;;;;;17.73;11.83;;;4.50;99.90;;;;;;5036468;28;20571;-87
2020/12/16 06:05:06;;;;;;;14.77;10.50;;;4.50;99.90;;;;;;5036368;28;20517;-86
2020/12/16 06:07:33;;;;;;;12.30;9.60;;;4.50;99.90;;;;;;5035889;28;20532;-87
2020/12/16 06:10:00;;;;;;;16.30;11.77;;;4.40;99.90;;;;;;5037331;28;20494;-86
2020/12/16 06:12:30;;;;;;;15.50;12.03;;;4.40;99.90;;;;;;5035919;28;20461;-87
2020/12/16 06:15:06;;;;;;;17.20;11.17;;;4.40;99.90;;;;;;5034336;28;20900;-87
2020/12/16 06:17:38;;;;;;;15.63;10.17;;;4.40;99.90;;;;;;5035780;28;20552;-86
2020/12/16 06:20:08;;;;;;;12.83;9.60;;;4.40;99.90;;;;;;5035837;28;20814;-86
2020/12/16 06:22:35;;;;;;;15.10;10.87;;;4.40;99.90;;;;;;5035456;28;20529;-86
2020/12/16 06:25:08;;;;;;;16.83;10.60;;;4.40;99.90;;;;;;5036322;28;20501;-86
2020/12/16 06:27:47;;;;;;;15.93;11.40;;;4.40;99.90;;;;;;5035262;28;20539;-87
2020/12/16 06:30:19;;;;;;;14.47;10.50;;;4.30;99.90;;;;;;5036175;28;20420;-86
2020/12/16 06:32:50;;;;;;;16.10;11.47;;;4.30;99.90;;;;;;5035606;28;20822;-86
2020/12/16 06:35:21;;;;;;;15.67;11.00;;;4.30;99.90;;;;;;5036634;28;20556;-87
2020/12/16 06:38:08;;;;;;;17.30;10.73;;;4.30;99.90;;;;;;5036252;28;20523;-87
2020/12/16 06:40:45;;;;;;;14.20;10.17;;;4.20;99.90;;;;;;5035331;28;20536;-86
2020/12/16 06:43:35;;;;;;;13.90;9.90;;;4.30;99.90;;;;;;5035794;28;20507;-85
2020/12/16 06:46:03;;;;;;;16.93;10.47;;;4.20;99.90;;;;;;5035931;28;20549;-85
2020/12/16 06:48:34;;;;;;;15.20;10.33;;;4.20;99.90;;;;;;5035157;28;20455;-85
2020/12/16 06:51:16;;;;;;;14.23;10.03;;;4.20;99.90;;;;;;5035356;28;20477;-82
2020/12/16 06:53:43;;;;;;;14.40;10.47;;;4.20;99.90;;;;;;5035301;28;20904;-82
2020/12/16 06:56:10;;;;;;;15.60;11.37;;;4.20;99.90;;;;;;5035505;28;20458;-82
2020/12/16 06:58:37;;;;;;;13.50;10.03;;;4.20;99.90;;;;;;5034803;28;20460;-84
2020/12/16 07:01:14;;;;;;;15.30;9.80;;;4.20;99.90;;;;;;5026735;28;20479;-83
2020/12/16 07:03:41;;;;;;;14.60;10.20;;;4.20;99.90;;;;;;5016070;28;20439;-84
2020/12/16 07:06:11;;;;;;;15.23;10.80;;;4.20;99.90;;;;;;5033916;28;20572;-83
2020/12/16 07:08:38;;;;;;;17.80;11.20;;;4.20;99.90;;;;;;5022157;28;20454;-83
2020/12/16 07:11:06;;;;;;;15.90;10.53;;;4.40;99.90;;;;;;5031592;28;20458;-85
2020/12/16 07:13:34;;;;;;;15.20;10.90;;;4.50;99.90;;;;;;5032781;28;20469;-84
2020/12/16 07:16:09;;;;;;;14.10;10.03;;;4.60;99.90;;;;;;5034182;28;20470;-86
2020/12/16 07:18:45;;;;;;;14.73;10.63;;;4.70;99.90;;;;;;5034023;28;20446;-84
2020/12/16 07:21:33;;;;;;;13.97;9.97;;;4.90;99.90;;;;;;5034893;28;20473;-83
2020/12/16 07:24:10;;;;;;;14.80;11.30;;;5.00;99.90;;;;;;5036871;28;20513;-83
2020/12/16 07:26:43;;;;;;;18.33;12.00;;;5.10;99.90;;;;;;5032128;28;20452;-84
2020/12/16 07:29:24;;;;;;;13.77;10.57;;;5.20;99.90;;;;;;5034595;28;20452;-84
2020/12/16 07:31:55;;;;;;;13.63;9.93;;;5.40;99.90;;;;;;5033489;28;20532;-84
2020/12/16 07:34:23;;;;;;;25.73;11.27;;;5.50;99.90;;;;;;5033606;28;20450;-85
2020/12/16 07:36:54;;;;;;;14.60;11.63;;;5.60;99.90;;;;;;5034014;28;20470;-84
2020/12/16 07:39:20;;;;;;;17.47;12.17;;;5.70;99.90;;;;;;5033609;28;20534;-87
2020/12/16 07:41:47;;;;;;;15.60;11.23;;;5.80;99.90;;;;;;5032970;28;20491;-84
2020/12/16 07:44:13;;;;;;;16.07;11.50;;;5.90;99.90;;;;;;5033174;28;20489;-84
2020/12/16 07:46:39;;;;;;;15.77;11.40;;;6.00;99.90;;;;;;5050128;28;21045;-83
2020/12/16 07:49:09;;;;;;;17.20;12.57;;;6.10;99.90;;;;;;5035879;28;20452;-88
2020/12/16 07:51:37;;;;;;;14.90;11.13;;;6.20;99.90;;;;;;5025868;28;20852;-85
2020/12/16 07:56:51;;;;;;;16.83;11.47;;;6.30;99.90;;;;;;5009859;28;20479;-84
2020/12/16 07:59:21;;;;;;;19.40;13.73;;;6.50;99.90;;;;;;5030441;28;20532;-85
2020/12/16 08:01:54;;;;;;;16.50;11.63;;;6.60;99.90;;;;;;5034746;28;20472;-84
2020/12/16 08:04:55;;;;;;;;;;;;;;;;;;;;;
2020/12/16 08:07:24;;;;;;;17.60;12.43;;;6.80;99.90;;;;;;5036388;28;20440;-85
2020/12/16 08:09:55;;;;;;;19.30;11.77;;;6.90;99.90;;;;;;5034192;28;20910;-83
2020/12/16 08:12:26;;;;;;;16.43;11.60;;;7.00;99.90;;;;;;5027146;28;20909;-91
2020/12/16 08:15:05;;;;;;;16.40;12.20;;;7.00;99.90;;;;;;5033688;28;20471;-83
2020/12/16 08:17:36;;;;;;;14.30;11.80;;;7.10;99.90;;;;;;5033537;28;20448;-87
2020/12/16 08:20:12;;;;;;;17.23;13.00;;;7.20;99.90;;;;;;5026363;28;20476;-83
2020/12/16 08:22:40;;;;;;;14.33;10.80;;;7.10;99.90;;;;;;5028483;28;20479;-83
2020/12/16 08:25:10;;;;;;;18.83;12.50;;;7.10;99.90;;;;;;5022204;28;20449;-82
2020/12/16 08:27:43;;;;;;;17.97;11.50;;;7.00;99.90;;;;;;5029268;28;20460;-86
2020/12/16 08:30:11;;;;;;;16.80;12.23;;;6.90;99.90;;;;;;5029620;28;20452;-86
2020/12/16 08:32:45;;;;;;;16.43;12.07;;;6.90;99.90;;;;;;5021546;28;20544;-84
2020/12/16 08:35:18;;;;;;;14.73;10.83;;;6.80;99.90;;;;;;5023397;28;21032;-83
2020/12/16 08:37:49;;;;;;;17.47;12.30;;;6.80;99.90;;;;;;5034789;28;20917;-83
2020/12/16 08:40:16;;;;;;;20.57;13.00;;;6.80;99.90;;;;;;5026657;28;21031;-83
2020/12/16 08:42:43;;;;;;;18.80;11.40;;;6.70;99.90;;;;;;5032317;28;20453;-86
2020/12/16 08:45:10;;;;;;;16.63;11.53;;;6.70;99.90;;;;;;5036046;28;20913;-83
2020/12/16 08:47:37;;;;;;;17.93;12.63;;;6.70;99.90;;;;;;5036067;28;20890;-84
2020/12/16 08:50:11;;;;;;;17.37;12.23;;;6.60;99.90;;;;;;5030681;28;20453;-84
2020/12/16 08:52:43;;;;;;;15.53;11.20;;;6.60;99.90;;;;;;5039642;28;20837;-83
2020/12/16 08:55:14;;;;;;;17.40;11.93;;;6.60;99.90;;;;;;5039669;28;20503;-83
2020/12/16 08:57:50;;;;;;;14.63;11.43;;;6.60;99.90;;;;;;5032162;28;20975;-83
2020/12/16 09:00:17;;;;;;;13.50;11.27;;;6.60;99.90;;;;;;5037100;28;20487;-82
2020/12/16 09:02:43;;;;;;;13.93;10.33;;;6.60;99.90;;;;;;5037841;28;20445;-83
2020/12/16 09:05:10;;;;;;;15.73;11.67;;;6.60;99.90;;;;;;5036975;28;20456;-83
2020/12/16 09:07:37;;;;;;;16.87;11.83;;;6.60;99.90;;;;;;5039485;28;20450;-83
2020/12/16 09:10:08;;;;;;;14.77;11.00;;;6.70;99.90;;;;;;5037123;28;20456;-82
2020/12/16 09:12:39;;;;;;;18.67;11.97;;;6.70;99.90;;;;;;5037604;28;20487;-83
2020/12/16 09:15:06;;;;;;;14.90;11.13;;;6.70;99.90;;;;;;5037909;28;20449;-82
2020/12/16 09:17:34;;;;;;;22.47;14.27;;;6.80;99.90;;;;;;5034566;28;20939;-84
2020/12/16 09:20:01;;;;;;;16.57;11.07;;;6.90;99.90;;;;;;5037630;28;20453;-83
2020/12/16 09:22:29;;;;;;;16.93;12.10;;;7.00;99.90;;;;;;5027026;28;20757;-83
2020/12/16 09:24:57;;;;;;;17.47;12.03;;;7.00;99.90;;;;;;5018344;28;20532;-83
2020/12/16 09:27:23;;;;;;;16.57;11.73;;;7.10;99.90;;;;;;5019909;28;20479;-83
2020/12/16 09:29:51;;;;;;;15.27;10.77;;;7.10;99.90;;;;;;5038369;28;20452;-83
2020/12/16 09:32:19;;;;;;;19.13;12.40;;;7.20;99.90;;;;;;5038942;28;20449;-84
2020/12/16 09:34:47;;;;;;;12.50;10.30;;;7.20;99.90;;;;;;5029601;28;20536;-84
2020/12/16 09:37:16;;;;;;;16.90;11.70;;;7.30;99.90;;;;;;5037861;28;20547;-84
2020/12/16 09:39:43;;;;;;;14.47;10.27;;;7.40;99.90;;;;;;5037219;28;20456;-84
2020/12/16 09:42:11;;;;;;;14.97;10.07;;;7.30;99.90;;;;;;5037844;28;20575;-84
2020/12/16 09:44:38;;;;;;;15.40;10.17;;;7.40;99.90;;;;;;5037837;28;20531;-84
2020/12/16 09:47:29;;;;;;;17.73;12.47;;;7.40;99.90;;;;;;5037645;28;20461;-83
2020/12/16 09:53:24;;;;;;;14.40;10.03;;;7.50;99.90;;;;;;5031231;28;20474;-83
2020/12/16 09:55:50;;;;;;;14.77;10.33;;;7.70;99.90;;;;;;5036860;28;20461;-83
2020/12/16 09:58:17;;;;;;;12.00;10.43;;;7.70;99.90;;;;;;5037033;28;20467;-83
2020/12/16 10:00:44;;;;;;;12.67;10.50;;;7.70;99.90;;;;;;5037572;28;20489;-83
2020/12/16 10:03:13;;;;;;;16.60;11.10;;;7.80;99.90;;;;;;5037324;28;20543;-83
2020/12/16 10:05:41;;;;;;;15.10;10.73;;;7.80;99.90;;;;;;5038417;28;20461;-83
2020/12/16 10:08:11;;;;;;;13.43;9.27;;;7.80;99.90;;;;;;5037737;28;20539;-84
2020/12/16 10:11:02;;;;;;;15.70;10.73;;;7.80;99.90;;;;;;5038729;28;20495;-83
2020/12/16 10:13:28;;;;;;;16.03;12.30;;;7.90;99.90;;;;;;5039677;28;20487;-83
2020/12/16 10:15:55;;;;;;;12.93;9.20;;;8.00;99.90;;;;;;5037463;28;20539;-83
2020/12/16 10:18:24;;;;;;;11.07;9.43;;;7.90;99.90;;;;;;5031573;28;20510;-83
2020/12/16 10:20:51;;;;;;;12.67;8.90;;;7.90;99.90;;;;;;5018271;28;21045;-84
2020/12/16 10:23:17;;;;;;;14.20;9.83;;;8.00;99.90;;;;;;5027388;28;20453;-84
2020/12/16 10:25:46;;;;;;;11.73;9.33;;;8.00;99.90;;;;;;5038155;28;20468;-84
2020/12/16 10:31:49;;;;;;;15.00;10.90;;;8.60;99.90;;;;;;5038849;28;20451;-84
2020/12/16 10:34:16;;;;;;;12.20;10.00;;;9.10;99.90;;;;;;5037389;28;20488;-84
2020/12/16 10:36:43;;;;;;;15.10;11.57;;;9.60;99.90;;;;;;5036719;28;20521;-83
2020/12/16 10:39:10;;;;;;;13.10;11.47;;;10.00;99.90;;;;;;5036576;28;20449;-84
2020/12/16 10:41:36;;;;;;;14.17;11.60;;;10.30;99.90;;;;;;5036749;28;20477;-85
2020/12/16 10:44:03;;;;;;;13.23;11.23;;;10.50;99.90;;;;;;5036568;28;20486;-84
2020/12/16 10:46:29;;;;;;;13.03;11.07;;;10.50;99.90;;;;;;5036842;28;20453;-84
2020/12/16 10:48:56;;;;;;;14.73;11.17;;;10.40;99.90;;;;;;5037138;28;20455;-84
2020/12/16 10:51:27;;;;;;;10.70;9.60;;;10.30;99.90;;;;;;5036568;28;20551;-84
2020/12/16 10:53:54;;;;;;;10.20;9.10;;;10.30;99.90;;;;;;5018170;28;20965;-84
2020/12/16 10:56:57;;;;;;;28.43;12.47;;;10.20;99.90;;;;;;5016405;28;20913;-84
2020/12/16 10:59:29;;;;;;;12.20;9.53;;;10.10;99.90;;;;;;5016565;28;20854;-84
2020/12/16 11:01:55;;;;;;;13.40;9.33;;;10.10;99.90;;;;;;5016139;28;20510;-84
2020/12/16 11:21:27;;;;;;;7.00;5.83;;;10.40;99.90;;;;;;5038606;28;20499;-84
2020/12/16 11:23:55;;;;;;;9.10;7.53;;;11.50;99.90;;;;;;5036344;28;20540;-85
2020/12/16 11:26:21;;;;;;;9.67;7.43;;;13.10;99.90;;;;;;5035551;28;20447;-85
2020/12/16 11:29:32;;;;;;;7.43;6.73;;;15.40;99.90;;;;;;5036567;28;20834;-85
2020/12/16 11:32:01;;;;;;;4.53;2.90;;;17.70;99.90;;;;;;5035658;28;20453;-83
2020/12/16 11:34:29;;;;;;;3.90;2.30;;;19.20;99.90;;;;;;5036225;28;20524;-82
2020/12/16 11:36:58;;;;;;;3.03;2.27;;;20.80;99.90;;;;;;5035684;28;20859;-83
2020/12/16 11:39:27;;;;;;;3.43;2.53;;;20.80;99.90;;;;;;5035921;28;20455;-82
2020/12/16 11:41:55;;;;;;;2.60;2.10;;;19.30;99.90;;;;;;5036788;28;20567;-83
2020/12/16 11:51:14;;;;;;;3.43;2.47;;;17.30;99.90;;;;;;5033739;28;20882;-84
2020/12/16 11:53:41;;;;;;;3.10;1.97;;;16.50;99.90;;;;;;5031723;28;20844;-85
2020/12/16 11:56:08;;;;;;;2.77;1.80;;;17.10;99.90;;;;;;5028726;28;20552;-87
2020/12/16 11:58:34;;;;;;;3.07;2.17;;;19.20;99.90;;;;;;5015252;28;20520;-85
2020/12/16 12:01:16;;;;;;;3.67;2.60;;;20.60;99.90;;;;;;5016035;28;20565;-86
2020/12/16 12:07:33;;;;;;;3.13;2.53;;;21.10;99.90;;;;;;5015451;28;20385;-85
2020/12/16 12:13:26;;;;;;;3.40;2.50;;;19.70;99.90;;;;;;5015713;28;20389;-86
2020/12/16 12:19:18;;;;;;;3.13;2.57;;;18.30;99.90;;;;;;5014693;28;20417;-84
2020/12/16 12:28:46;;;;;;;3.40;2.57;;;15.70;99.90;;;;;;5015634;28;20429;-85
2020/12/16 12:34:35;;;;;;;4.20;2.87;;;14.50;99.90;;;;;;5015017;28;20754;-85
2020/12/16 12:37:01;;;;;;;3.57;2.77;;;14.20;99.90;;;;;;5015094;28;20871;-85
2020/12/16 12:39:34;;;;;;;4.60;3.30;;;14.10;99.90;;;;;;5014763;28;20461;-85
2020/12/16 12:42:00;;;;;;;4.83;3.37;;;13.90;99.90;;;;;;5016037;28;20898;-85
2020/12/16 12:44:48;;;;;;;7.93;3.30;;;13.70;99.90;;;;;;5015438;28;20500;-83
2020/12/16 12:47:15;;;;;;;10.90;3.30;;;13.40;99.90;;;;;;5034516;28;20449;-84
2020/12/16 12:49:41;;;;;;;4.20;3.27;;;13.20;99.90;;;;;;5034303;28;20794;-83
2020/12/16 12:52:07;;;;;;;5.40;3.47;;;13.10;99.90;;;;;;5034580;28;20901;-83
2020/12/16 12:54:35;;;;;;;4.13;3.53;;;13.00;99.90;;;;;;5034730;28;20447;-84
2020/12/16 12:57:01;;;;;;;4.73;2.53;;;13.00;99.90;;;;;;5034801;28;20510;-84
2020/12/16 12:59:30;;;;;;;3.00;2.70;;;13.00;99.90;;;;;;5035402;28;20455;-84
2020/12/16 13:02:19;;;;;;;3.40;2.47;;;12.90;99.90;;;;;;5034484;28;20492;-84
2020/12/16 13:04:46;;;;;;;3.90;2.50;;;13.00;99.90;;;;;;5045929;28;20440;-84
2020/12/16 13:07:12;;;;;;;4.40;3.97;;;13.00;99.90;;;;;;5054529;28;20481;-84
2020/12/16 13:09:40;;;;;;;3.63;2.77;;;12.80;99.90;;;;;;5054779;28;20456;-84
2020/12/16 13:12:07;;;;;;;6.23;2.40;;;12.80;99.90;;;;;;5054255;28;20801;-83
2020/12/16 13:14:37;;;;;;;3.63;3.33;;;12.80;99.90;;;;;;5050051;28;20434;-84
2020/12/16 13:17:05;;;;;;;5.70;3.70;;;12.90;99.90;;;;;;5035858;28;20764;-85
2020/12/16 13:19:32;;;;;;;4.23;3.53;;;12.70;99.90;;;;;;5033588;28;20516;-85
2020/12/16 13:21:59;;;;;;;3.30;2.50;;;12.50;99.90;;;;;;5030942;28;20526;-84
2020/12/16 13:24:26;;;;;;;3.70;2.97;;;12.70;99.90;;;;;;5034212;28;20457;-85
2020/12/16 13:26:53;;;;;;;4.47;3.07;;;12.70;99.90;;;;;;5034767;28;20535;-86
2020/12/16 13:29:43;;;;;;;4.47;4.03;;;12.60;99.90;;;;;;5035552;28;20496;-86
2020/12/16 13:32:10;;;;;;;4.33;3.40;;;12.50;99.90;;;;;;5027633;28;20461;-84
2020/12/16 13:34:37;;;;;;;4.67;3.37;;;12.30;99.90;;;;;;5018273;28;20461;-86
2020/12/16 13:37:03;;;;;;;6.40;3.90;;;12.20;99.90;;;;;;5017990;28;20446;-85
2020/12/16 13:40:03;;;;;;;4.43;3.93;;;12.20;99.90;;;;;;5018651;28;20457;-85
2020/12/16 13:45:56;;;;;;;3.80;3.10;;;12.30;99.90;;;;;;5017898;28;20489;-86
2020/12/16 13:48:30;;;;;;;4.20;3.13;;;12.40;99.90;;;;;;5025645;28;20453;-85